Time;durP1;ratioP1;P1;durP2;ratioP2;P2;SDS_P1;SDS_P2;PMS_P1;PMS_P2;Temp;Humidity;BMP_temperature;BMP_pressure;BME280_temperature;BME280_humidity;BME280_pressure;Samples;Min_cycle;Max_cycle;Signal;HPM_P1;HPM_P2
2021/08/20 00:01:54;;;;;;;2.03;1.70;;;;;;;15.69;70.38;95674.41;5113303;28;20211;-78
2021/08/20 00:04:19;;;;;;;2.70;1.67;;;;;;;15.69;70.58;95678.84;5115206;28;20175;-78
2021/08/20 00:06:45;;;;;;;2.53;1.42;;;;;;;15.57;70.54;95670.56;5115050;28;20688;-78
2021/08/20 00:09:10;;;;;;;2.10;1.42;;;;;;;15.64;70.52;95678.56;5098322;28;20190;-77
2021/08/20 00:11:37;;;;;;;3.05;1.60;;;;;;;15.67;70.71;95675.59;5114517;28;20171;-79
2021/08/20 00:14:02;;;;;;;2.20;1.63;;;;;;;15.63;70.93;95679.53;5115000;28;20175;-79
2021/08/20 00:16:27;;;;;;;2.55;1.88;;;;;;;15.63;70.88;95677.72;5114871;28;20669;-78
2021/08/20 00:18:53;;;;;;;2.92;1.75;;;;;;;15.61;70.73;95671.03;5117417;27;20172;-79
2021/08/20 00:21:18;;;;;;;2.45;1.83;;;;;;;15.51;71.27;95673.88;5118928;27;20175;-79
2021/08/20 00:23:43;;;;;;;1.83;1.60;;;;;;;15.54;71.04;95671.69;5119075;27;20229;-77
2021/08/20 00:26:09;;;;;;;2.88;1.65;;;;;;;15.52;71.17;95672.88;5119136;27;20176;-78
2021/08/20 00:28:34;;;;;;;1.50;1.40;;;;;;;15.50;71.55;95670.44;5101950;27;20221;-79
2021/08/20 00:30:59;;;;;;;2.25;1.55;;;;;;;15.48;71.47;95672.44;5119296;27;20171;-77
2021/08/20 00:33:25;;;;;;;1.80;1.60;;;;;;;15.52;70.93;95673.69;5118019;27;20171;-79
2021/08/20 00:35:50;;;;;;;1.83;1.70;;;;;;;15.59;70.31;95679.84;5118901;27;20171;-79
2021/08/20 00:38:16;;;;;;;2.50;1.35;;;;;;;15.63;70.09;95675.09;5118738;27;20198;-78
2021/08/20 00:40:42;;;;;;;4.20;2.03;;;;;;;15.62;70.20;95675.28;5113295;27;20634;-77
2021/08/20 00:43:08;;;;;;;2.25;1.70;;;;;;;15.59;70.20;95673.81;5097299;28;20214;-78
2021/08/20 00:45:34;;;;;;;2.03;1.80;;;;;;;15.66;70.05;95674.78;5098203;28;20176;-78
2021/08/20 00:48:00;;;;;;;3.08;1.50;;;;;;;15.67;69.56;95665.13;5097751;28;20746;-77
2021/08/20 00:50:25;;;;;;;2.10;1.90;;;;;;;15.66;69.42;95671.34;5097871;28;20199;-78
2021/08/20 00:52:50;;;;;;;1.48;1.38;;;;;;;15.66;69.55;95666.91;5115557;28;20179;-79
2021/08/20 00:55:16;;;;;;;3.95;1.88;;;;;;;15.69;69.54;95670.97;5117814;27;20195;-78
2021/08/20 00:57:44;;;;;;;1.38;1.27;;;;;;;15.72;69.25;95676.66;5099578;27;20199;-79
2021/08/20 01:00:09;;;;;;;1.88;1.75;;;;;;;15.72;69.37;95674.06;5077846;28;20207;-79
2021/08/20 01:02:35;;;;;;;3.15;1.65;;;;;;;15.72;69.29;95674.06;5092802;28;20224;-78
2021/08/20 01:05:00;;;;;;;2.40;1.63;;;;;;;15.75;69.69;95663.25;5114574;28;20172;-78
2021/08/20 01:07:26;;;;;;;3.58;1.70;;;;;;;15.75;69.59;95660.63;5080478;28;20207;-78
2021/08/20 01:09:51;;;;;;;3.35;1.90;;;;;;;15.74;69.63;95655.56;5081030;28;20258;-79
2021/08/20 01:12:16;;;;;;;1.83;1.52;;;;;;;15.73;70.24;95662.63;5096982;28;20168;-78
2021/08/20 01:14:42;;;;;;;1.85;1.75;;;;;;;15.67;70.05;95655.47;5097512;28;20229;-78
2021/08/20 01:17:08;;;;;;;1.98;1.42;;;;;;;15.66;70.24;95663.50;5080182;28;20275;-78
2021/08/20 01:19:36;;;;;;;3.38;1.52;;;;;;;15.64;70.24;95662.84;5097491;28;20217;-78
2021/08/20 01:22:03;;;;;;;2.17;1.85;;;;;;;15.65;70.19;95654.81;5096318;28;20195;-78
2021/08/20 01:24:28;;;;;;;4.97;2.10;;;;;;;15.68;70.39;95645.78;5080565;28;20187;-79
2021/08/20 01:26:54;;;;;;;2.20;1.70;;;;;;;15.62;70.69;95652.53;5096983;28;20207;-79
2021/08/20 01:29:20;;;;;;;4.30;1.92;;;;;;;15.57;70.69;95652.25;5096732;28;20180;-79
2021/08/20 01:31:47;;;;;;;3.20;1.90;;;;;;;15.57;70.82;95657.47;5079608;28;20564;-78
2021/08/20 01:34:13;;;;;;;1.83;1.60;;;;;;;15.65;70.55;95659.25;5097095;28;20172;-78
2021/08/20 01:36:38;;;;;;;3.08;2.15;;;;;;;15.63;70.81;95659.41;5096716;28;20244;-79
2021/08/20 01:39:04;;;;;;;2.80;1.77;;;;;;;15.65;70.63;95652.22;5097109;28;20171;-79
2021/08/20 01:41:29;;;;;;;2.03;1.58;;;;;;;15.66;70.61;95653.84;5096379;28;20187;-78
2021/08/20 01:43:55;;;;;;;2.08;1.70;;;;;;;15.59;71.04;95658.91;5096777;28;20179;-77
2021/08/20 01:46:21;;;;;;;1.85;1.63;;;;;;;15.57;71.28;95655.66;5096559;28;20286;-79
2021/08/20 01:48:51;;;;;;;1.83;1.70;;;;;;;15.59;71.14;95664.16;5096512;28;20259;-78
2021/08/20 01:51:20;;;;;;;2.40;1.50;;;;;;;15.62;70.93;95654.34;5096589;28;20194;-78
2021/08/20 01:53:46;;;;;;;2.30;2.10;;;;;;;15.55;71.18;95657.66;5096588;28;20179;-78
2021/08/20 01:56:22;;;;;;;2.00;1.90;;;;;;;15.58;71.31;95653.88;5096881;28;20187;-77
2021/08/20 01:58:49;;;;;;;2.13;1.92;;;;;;;15.55;71.02;95660.28;5096748;28;20176;-79
2021/08/20 02:01:14;;;;;;;2.13;1.90;;;;;;;15.62;70.93;95655.16;5097021;28;20516;-78
2021/08/20 02:03:40;;;;;;;4.28;2.30;;;;;;;15.65;70.91;95657.44;5114153;28;20222;-78
2021/08/20 02:06:05;;;;;;;2.20;1.80;;;;;;;15.67;71.34;95655.47;5096043;28;20190;-79
2021/08/20 02:08:31;;;;;;;1.98;1.88;;;;;;;15.69;71.49;95652.66;5114151;28;20191;-79
2021/08/20 02:10:56;;;;;;;2.63;2.30;;;;;;;15.67;71.57;95662.50;5096598;28;20176;-79
2021/08/20 02:13:22;;;;;;;2.83;2.40;;;;;;;15.69;71.59;95663.13;5096189;28;20229;-78
2021/08/20 02:15:48;;;;;;;2.35;2.08;;;;;;;15.68;71.66;95661.50;5079092;28;20180;-79
2021/08/20 02:18:13;;;;;;;2.90;2.00;;;;;;;15.69;71.91;95660.50;5096105;28;20202;-78
2021/08/20 02:20:40;;;;;;;2.60;2.35;;;;;;;15.67;72.03;95654.66;5096322;28;20267;-78
2021/08/20 02:23:06;;;;;;;3.00;2.25;;;;;;;15.65;71.89;95656.63;5095859;28;20200;-78
2021/08/20 02:25:31;;;;;;;2.00;1.80;;;;;;;15.66;71.54;95656.44;5096318;28;20250;-78
2021/08/20 02:27:57;;;;;;;2.47;2.22;;;;;;;15.65;71.76;95659.25;5079378;28;20690;-78
2021/08/20 02:30:22;;;;;;;2.53;2.13;;;;;;;15.61;72.09;95658.78;5095883;28;20180;-78
2021/08/20 02:32:47;;;;;;;3.25;2.30;;;;;;;15.61;72.11;95665.81;5095571;28;20168;-78
2021/08/20 02:35:13;;;;;;;3.30;2.67;;;;;;;15.59;71.78;95658.91;5096043;28;20319;-78
2021/08/20 02:37:38;;;;;;;5.03;2.50;;;;;;;15.63;71.98;95659.41;5095611;28;20192;-78
2021/08/20 02:40:04;;;;;;;2.53;2.30;;;;;;;15.64;71.95;95657.63;5095821;28;20630;-78
2021/08/20 02:42:29;;;;;;;2.97;2.25;;;;;;;15.61;72.66;95665.81;5094041;28;20215;-79
2021/08/20 02:44:55;;;;;;;2.78;2.58;;;;;;;15.65;72.02;95669.72;5095652;28;20207;-77
2021/08/20 02:47:20;;;;;;;5.95;2.50;;;;;;;15.67;71.84;95654.66;5095516;28;20188;-79
2021/08/20 02:49:45;;;;;;;2.38;2.00;;;;;;;15.70;72.20;95659.53;5095127;28;20176;-78
2021/08/20 02:52:10;;;;;;;2.78;2.47;;;;;;;15.70;71.98;95659.53;5094788;28;20659;-79
2021/08/20 02:54:36;;;;;;;4.75;2.63;;;;;;;15.72;72.28;95655.72;5095737;28;20187;-78
2021/08/20 02:57:01;;;;;;;3.10;2.90;;;;;;;15.73;72.39;95659.19;5095044;28;20215;-78
2021/08/20 02:59:26;;;;;;;3.40;2.90;;;;;;;15.72;72.07;95660.16;5113785;28;20179;-78
2021/08/20 03:01:52;;;;;;;3.63;2.95;;;;;;;15.72;72.14;95653.09;5112294;28;20222;-79
2021/08/20 03:04:17;;;;;;;3.38;2.53;;;;;;;15.75;72.42;95651.97;5095133;28;20923;-77
2021/08/20 03:06:43;;;;;;;5.65;2.55;;;;;;;15.73;72.36;95646.91;5095132;28;20207;-78
2021/08/20 03:09:09;;;;;;;3.35;2.90;;;;;;;15.75;72.33;95649.34;5095195;28;20213;-77
2021/08/20 03:11:34;;;;;;;3.88;2.90;;;;;;;15.74;72.71;95647.72;5094564;28;20517;-78
2021/08/20 03:13:59;;;;;;;3.17;2.70;;;;;;;15.73;72.59;95648.72;5095613;28;20202;-78
2021/08/20 03:16:25;;;;;;;5.40;2.90;;;;;;;15.71;72.71;95651.47;5096307;28;20211;-78
2021/08/20 03:18:50;;;;;;;3.58;2.50;;;;;;;15.72;72.90;95641.81;5096124;28;20180;-78
2021/08/20 03:21:15;;;;;;;4.00;3.17;;;;;;;15.73;72.73;95651.34;5095771;28;20647;-79
2021/08/20 03:23:41;;;;;;;4.40;3.00;;;;;;;15.72;72.78;95637.41;5095500;28;20199;-78
2021/08/20 03:26:06;;;;;;;3.22;2.92;;;;;;;15.76;72.77;95643.13;5078316;28;20183;-78
2021/08/20 03:28:32;;;;;;;4.53;3.03;;;;;;;15.76;72.95;95645.72;5078033;28;20245;-79
2021/08/20 03:30:57;;;;;;;5.13;3.28;;;;;;;15.75;72.99;95642.31;5113398;28;20711;-78
2021/08/20 03:33:22;;;;;;;3.63;2.85;;;;;;;15.77;72.95;95644.75;5094349;28;20172;-79
2021/08/20 03:35:47;;;;;;;7.38;3.05;;;;;;;15.77;73.24;95642.94;5095145;28;20600;-79
2021/08/20 03:38:13;;;;;;;4.70;3.58;;;;;;;15.76;73.30;95643.94;5094885;28;20191;-79
2021/08/20 03:40:38;;;;;;;3.47;3.08;;;;;;;15.77;73.41;95640.31;5113258;28;20310;-79
2021/08/20 03:43:03;;;;;;;6.55;3.53;;;;;;;15.77;73.11;95649.97;5093982;28;20203;-79
2021/08/20 03:45:29;;;;;;;4.78;3.38;;;;;;;15.76;73.09;95649.16;5094976;28;20178;-79
2021/08/20 03:47:54;;;;;;;5.00;3.08;;;;;;;15.74;73.53;95645.91;5095150;28;20195;-78
2021/08/20 03:50:19;;;;;;;5.07;3.42;;;;;;;15.72;73.76;95649.69;5095033;28;20171;-78
2021/08/20 03:52:45;;;;;;;6.10;3.10;;;;;;;15.66;73.73;95656.44;5094042;28;20175;-78
2021/08/20 03:55:10;;;;;;;5.95;3.28;;;;;;;15.53;74.11;95654.38;5112928;28;20187;-78
2021/08/20 03:57:35;;;;;;;4.35;2.67;;;;;;;15.61;73.47;95653.53;5077641;28;20570;-79
2021/08/20 04:00:01;;;;;;;4.90;2.88;;;;;;;15.56;73.84;95653.22;5095152;28;20179;-78
2021/08/20 04:02:26;;;;;;;5.85;2.60;;;;;;;15.50;73.69;95661.78;5093582;28;20596;-79
2021/08/20 04:04:51;;;;;;;4.93;2.58;;;;;;;15.43;74.02;95656.41;5094420;28;20183;-79
2021/08/20 04:07:19;;;;;;;4.57;2.33;;;;;;;15.41;74.29;95663.63;5094823;28;20227;-79
2021/08/20 04:09:46;;;;;;;2.53;2.33;;;;;;;15.38;74.26;95655.34;5095078;28;20195;-79
2021/08/20 04:12:13;;;;;;;2.58;2.38;;;;;;;15.44;74.14;95667.69;5094475;28;20266;-79
2021/08/20 04:14:38;;;;;;;2.60;2.40;;;;;;;15.41;74.71;95663.63;5095208;28;20608;-79
2021/08/20 04:17:03;;;;;;;3.88;2.17;;;;;;;15.38;74.62;95669.22;5112557;28;20196;-77
2021/08/20 04:19:29;;;;;;;2.75;2.28;;;;;;;15.42;74.90;95664.44;5112582;28;20201;-78
2021/08/20 04:21:54;;;;;;;2.70;2.45;;;;;;;15.43;75.22;95660.84;5076904;28;20200;-77
2021/08/20 04:24:19;;;;;;;5.57;3.13;;;;;;;15.45;74.81;95667.53;5094038;28;20266;-77
2021/08/20 04:26:45;;;;;;;3.92;3.13;;;;;;;15.47;75.20;95662.94;5112989;28;20270;-79
2021/08/20 04:29:11;;;;;;;4.65;2.88;;;;;;;15.47;75.23;95673.41;5094975;28;20172;-79
2021/08/20 04:31:36;;;;;;;4.43;3.00;;;;;;;15.47;75.17;95678.66;5093965;28;20202;-78
2021/08/20 04:34:01;;;;;;;3.50;3.10;;;;;;;15.48;75.33;95677.66;5094341;28;20225;-78
2021/08/20 04:36:27;;;;;;;3.45;3.15;;;;;;;15.48;74.77;95675.03;5094190;28;20191;-78
2021/08/20 04:38:52;;;;;;;3.42;2.85;;;;;;;15.52;74.92;95673.69;5094279;28;20186;-78
2021/08/20 04:41:17;;;;;;;3.42;2.78;;;;;;;15.53;74.93;95680.53;5094096;28;20267;-78
2021/08/20 04:43:43;;;;;;;4.22;2.58;;;;;;;15.55;74.71;95678.59;5112057;28;20207;-78
2021/08/20 04:46:08;;;;;;;4.80;2.80;;;;;;;15.57;75.23;95676.59;5094494;28;20651;-76
2021/08/20 04:48:33;;;;;;;3.00;2.72;;;;;;;15.63;74.70;95679.53;5094152;28;20180;-78
2021/08/20 04:50:59;;;;;;;4.32;2.75;;;;;;;15.64;74.71;95689.84;5094130;28;20566;-78
2021/08/20 04:53:28;;;;;;;3.38;3.08;;;;;;;15.70;74.53;95690.94;5093698;28;20176;-78
2021/08/20 04:55:53;;;;;;;4.10;2.95;;;;;;;15.70;74.72;95688.31;5094776;28;20298;-78
2021/08/20 04:58:19;;;;;;;3.65;3.17;;;;;;;15.76;74.49;95690.25;5094247;28;20635;-78
2021/08/20 05:00:46;;;;;;;3.30;2.58;;;;;;;15.85;74.07;95689.19;5094181;28;20270;-78
2021/08/20 05:03:11;;;;;;;2.95;2.75;;;;;;;15.91;73.83;95692.91;5093614;28;20226;-78
2021/08/20 05:05:36;;;;;;;3.67;2.50;;;;;;;16.00;73.33;95697.91;5079994;28;20226;-78
2021/08/20 05:08:03;;;;;;;3.85;2.90;;;;;;;16.10;72.97;95693.22;5097877;28;20195;-79
2021/08/20 05:10:30;;;;;;;5.43;3.67;;;;;;;16.17;72.33;95708.19;5097673;28;20176;-77
2021/08/20 05:12:55;;;;;;;6.22;3.50;;;;;;;16.24;72.34;95709.13;5096956;28;20183;-77
2021/08/20 05:15:22;;;;;;;4.30;3.15;;;;;;;16.29;72.16;95720.72;5097648;28;20172;-77
2021/08/20 05:17:48;;;;;;;9.20;3.67;;;;;;;16.32;72.08;95722.16;5098487;28;20678;-80
2021/08/20 05:20:13;;;;;;;4.88;3.60;;;;;;;16.38;72.06;95721.44;5098766;28;20179;-82
2021/08/20 05:22:46;;;;;;;5.38;3.85;;;;;;;16.42;71.86;95720.91;5114036;28;20207;-78
2021/08/20 05:25:11;;;;;;;5.80;3.65;;;;;;;16.34;72.04;95725.41;5097155;28;20180;-78
2021/08/20 05:27:36;;;;;;;3.65;3.30;;;;;;;16.37;72.25;95725.88;5083944;27;20195;-78
2021/08/20 05:30:02;;;;;;;5.43;3.53;;;;;;;16.43;72.16;95732.19;5097363;28;20546;-79
2021/08/20 05:32:27;;;;;;;4.32;3.70;;;;;;;16.42;72.15;95734.00;5129163;27;20262;-79
2021/08/20 05:34:53;;;;;;;6.50;3.55;;;;;;;16.48;71.94;95740.34;5117277;27;20215;-79
2021/08/20 05:37:18;;;;;;;6.32;3.42;;;;;;;16.47;72.22;95730.84;5104421;27;20194;-81
2021/08/20 05:39:43;;;;;;;3.60;2.90;;;;;;;16.52;72.41;95738.16;5117401;27;20175;-79
2021/08/20 05:42:09;;;;;;;5.18;3.03;;;;;;;16.61;71.96;95726.63;5116533;27;20210;-79
2021/08/20 05:44:34;;;;;;;5.35;3.83;;;;;;;16.59;71.82;95729.41;5116846;27;20178;-77
2021/08/20 05:46:59;;;;;;;4.85;3.45;;;;;;;16.68;71.72;95738.00;5135255;27;20199;-77
2021/08/20 05:49:25;;;;;;;3.63;3.17;;;;;;;16.70;72.08;95741.31;5116381;27;20222;-79
2021/08/20 05:51:51;;;;;;;4.30;3.20;;;;;;;16.69;71.90;95739.66;5099095;27;20203;-78
2021/08/20 05:54:16;;;;;;;7.57;4.20;;;;;;;16.71;72.28;95745.56;5099902;27;20214;-78
2021/08/20 05:56:42;;;;;;;4.53;4.10;;;;;;;16.73;72.13;95745.38;5116586;27;20234;-77
2021/08/20 05:59:08;;;;;;;4.40;4.00;;;;;;;16.84;72.22;95742.28;5135834;27;20203;-78
2021/08/20 06:01:33;;;;;;;5.20;4.15;;;;;;;16.90;71.94;95752.06;5099416;27;20568;-77
2021/08/20 06:03:59;;;;;;;6.78;3.78;;;;;;;16.94;72.42;95748.06;5116204;27;20214;-77
2021/08/20 06:06:24;;;;;;;5.30;4.80;;;;;;;16.94;72.44;95755.94;5098645;27;20178;-76
2021/08/20 06:08:49;;;;;;;8.50;5.53;;;;;;;17.04;72.43;95756.47;5118619;27;20183;-75
2021/08/20 06:11:15;;;;;;;6.35;4.70;;;;;;;17.24;71.64;95752.31;5128276;27;20187;-76
2021/08/20 06:13:40;;;;;;;4.32;3.67;;;;;;;17.60;70.64;95748.06;5117851;27;20175;-76
2021/08/20 06:16:05;;;;;;;7.13;5.05;;;;;;;17.79;69.58;95757.97;5114723;27;20210;-76
2021/08/20 06:18:31;;;;;;;6.47;4.15;;;;;;;18.20;68.66;95757.31;5115493;27;20195;-76
2021/08/20 06:20:56;;;;;;;4.90;4.40;;;;;;;18.51;67.58;95757.78;5115424;27;20550;-77
2021/08/20 06:23:21;;;;;;;5.47;4.90;;;;;;;18.75;67.44;95755.75;5108302;27;20194;-77
2021/08/20 06:25:47;;;;;;;5.03;4.25;;;;;;;18.82;66.82;95767.94;5098568;27;20211;-75
2021/08/20 06:28:12;;;;;;;5.10;4.60;;;;;;;18.65;67.24;95762.16;5115165;27;20234;-77
2021/08/20 06:30:44;;;;;;;8.02;5.07;;;;;;;18.38;67.86;95763.75;5115598;27;20175;-77
2021/08/20 06:33:09;;;;;;;5.95;5.38;;;;;;;18.03;69.49;95764.69;5115279;27;20220;-77
2021/08/20 06:35:34;;;;;;;6.03;5.43;;;;;;;18.15;68.96;95757.91;5133412;27;20262;-78
2021/08/20 06:38:00;;;;;;;5.95;5.18;;;;;;;18.03;69.87;95764.69;5114779;27;20207;-76
2021/08/20 06:40:25;;;;;;;6.70;5.75;;;;;;;18.21;69.37;95757.16;5116040;27;20171;-76
2021/08/20 06:42:51;;;;;;;6.00;5.40;;;;;;;18.38;68.30;95765.59;5114922;27;20725;-78
2021/08/20 06:45:16;;;;;;;9.20;6.22;;;;;;;18.50;68.41;95771.94;5115391;27;20206;-78
2021/08/20 06:47:41;;;;;;;8.30;6.07;;;;;;;18.62;67.23;95761.69;5115930;27;20195;-77
2021/08/20 06:50:07;;;;;;;9.70;5.85;;;;;;;18.63;67.29;95764.13;5098654;27;20171;-77
2021/08/20 06:52:33;;;;;;;6.80;6.13;;;;;;;18.76;67.18;95765.25;5114476;27;20209;-77
2021/08/20 06:55:01;;;;;;;6.57;5.95;;;;;;;18.90;66.34;95765.13;5115354;27;20183;-77
2021/08/20 06:57:26;;;;;;;8.75;7.63;;;;;;;18.92;65.29;95760.50;5115351;27;20567;-77
2021/08/20 06:59:51;;;;;;;9.65;6.90;;;;;;;19.20;65.32;95763.06;5115096;27;20182;-75
2021/08/20 07:02:17;;;;;;;9.27;6.80;;;;;;;19.22;64.73;95766.31;5114141;27;20742;-77
2021/08/20 07:04:42;;;;;;;8.27;7.40;;;;;;;19.25;64.77;95765.91;5097999;27;20187;-78
2021/08/20 07:07:07;;;;;;;13.25;8.38;;;;;;;19.17;64.29;95768.75;5133030;27;20717;-76
2021/08/20 07:09:35;;;;;;;9.80;8.00;;;;;;;19.23;64.56;95772.38;5133232;27;20171;-78
2021/08/20 07:12:01;;;;;;;9.57;8.48;;;;;;;19.26;64.65;95772.03;5114451;27;20258;-77
2021/08/20 07:14:26;;;;;;;14.18;8.13;;;;;;;19.06;64.96;95771.09;5097569;27;20574;-76
2021/08/20 07:16:51;;;;;;;11.55;8.55;;;;;;;19.19;64.67;95776.44;5114235;27;20226;-77
2021/08/20 07:19:17;;;;;;;8.77;7.97;;;;;;;19.15;65.15;95775.19;5133379;27;20163;-78
2021/08/20 07:21:42;;;;;;;9.60;7.80;;;;;;;19.10;65.14;95772.34;5132704;27;20749;-76
2021/08/20 07:24:08;;;;;;;8.88;7.97;;;;;;;19.25;64.73;95775.63;5127142;27;20177;-78
2021/08/20 07:26:33;;;;;;;11.25;8.35;;;;;;;19.46;63.96;95774.72;5115174;27;20708;-78
2021/08/20 07:28:58;;;;;;;12.13;8.23;;;;;;;19.32;64.17;95770.41;5098810;28;20174;-77
2021/08/20 07:31:25;;;;;;;8.73;7.03;;;;;;;19.63;63.63;95773.41;5132912;27;20171;-78
2021/08/20 07:33:51;;;;;;;9.27;7.82;;;;;;;19.63;63.08;95772.59;5115254;27;20178;-77
2021/08/20 07:36:16;;;;;;;10.20;7.68;;;;;;;19.67;63.09;95779.06;5115327;28;20171;-78
2021/08/20 07:38:41;;;;;;;9.20;7.03;;;;;;;19.35;65.01;95777.94;5098115;27;20183;-78
2021/08/20 07:41:07;;;;;;;9.00;7.40;;;;;;;19.47;63.95;95778.97;5094726;28;20596;-79
2021/08/20 07:43:33;;;;;;;8.90;8.00;;;;;;;19.47;64.20;95778.97;5093919;28;20241;-77
2021/08/20 07:45:59;;;;;;;9.20;7.35;;;;;;;19.18;64.55;95780.06;5110099;28;20171;-77
2021/08/20 07:48:24;;;;;;;9.25;7.72;;;;;;;19.77;62.33;95777.66;5094434;28;20694;-77
2021/08/20 07:50:50;;;;;;;9.02;6.85;;;;;;;19.78;61.88;95770.56;5113115;28;20186;-78
2021/08/20 07:53:16;;;;;;;8.27;6.38;;;;;;;20.00;60.10;95784.44;5098771;28;20635;-77
2021/08/20 07:55:43;;;;;;;8.88;6.38;;;;;;;20.02;58.07;95785.84;5093542;28;20190;-76
2021/08/20 07:58:08;;;;;;;8.13;6.38;;;;;;;20.28;58.41;95790.34;5110295;28;20187;-78
2021/08/20 08:00:33;;;;;;;7.32;5.55;;;;;;;20.55;58.26;95787.72;5112159;28;20179;-76
2021/08/20 08:03:00;;;;;;;7.07;5.70;;;;;;;20.38;57.79;95793.38;5128958;28;20213;-77
2021/08/20 08:05:26;;;;;;;7.38;5.68;;;;;;;20.61;57.80;95790.38;5123750;28;20189;-75
2021/08/20 08:07:53;;;;;;;6.47;5.20;;;;;;;20.75;57.60;95792.97;5125499;28;20286;-78
2021/08/20 08:10:19;;;;;;;10.18;5.75;;;;;;;21.00;56.57;95793.97;5114797;28;20175;-78
2021/08/20 08:12:44;;;;;;;6.97;6.20;;;;;;;21.06;56.91;95794.97;5110878;28;20185;-76
2021/08/20 08:15:10;;;;;;;6.78;5.32;;;;;;;21.11;57.30;95790.69;5093188;28;20175;-77
2021/08/20 08:17:36;;;;;;;8.65;5.75;;;;;;;21.23;56.97;95793.50;5110956;28;20625;-77
2021/08/20 08:20:03;;;;;;;6.40;5.10;;;;;;;20.97;57.15;95801.50;5111059;28;20278;-77
2021/08/20 08:22:28;;;;;;;7.72;5.88;;;;;;;20.64;57.28;95794.41;5109992;28;20195;-77
2021/08/20 08:24:54;;;;;;;6.45;5.70;;;;;;;20.95;56.55;95801.72;5093479;28;20586;-75
2021/08/20 08:27:19;;;;;;;7.45;5.68;;;;;;;21.04;56.00;95808.41;5111079;28;20288;-77
2021/08/20 08:29:44;;;;;;;9.23;5.78;;;;;;;20.70;56.83;95806.00;5093924;28;20691;-76
2021/08/20 08:32:10;;;;;;;6.70;5.43;;;;;;;20.84;56.31;95812.88;5128180;28;20643;-76
2021/08/20 08:34:35;;;;;;;6.00;5.22;;;;;;;20.50;56.69;95811.28;5129597;28;20228;-76
2021/08/20 08:37:00;;;;;;;8.55;4.95;;;;;;;20.51;57.38;95812.91;5111202;28;20195;-76
2021/08/20 08:39:26;;;;;;;6.63;4.93;;;;;;;20.49;56.79;95815.72;5130177;27;20179;-76
2021/08/20 08:41:52;;;;;;;6.57;4.95;;;;;;;20.38;56.98;95813.66;5114243;27;20714;-77
2021/08/20 08:44:17;;;;;;;9.35;6.00;;;;;;;20.43;56.75;95813.06;5115588;27;20201;-78
2021/08/20 08:46:43;;;;;;;6.60;4.80;;;;;;;20.57;55.65;95820.81;5132699;27;20203;-76
2021/08/20 08:49:11;;;;;;;5.38;4.78;;;;;;;20.74;54.80;95815.13;5130553;27;20267;-76
2021/08/20 08:51:36;;;;;;;5.20;4.70;;;;;;;20.93;54.72;95817.72;5098468;27;20227;-78
2021/08/20 08:54:02;;;;;;;8.77;4.40;;;;;;;20.69;54.50;95815.75;5102528;28;20188;-81
2021/08/20 08:56:27;;;;;;;6.32;4.20;;;;;;;20.93;54.75;95815.09;5119070;27;20195;-78
2021/08/20 08:58:52;;;;;;;5.10;4.55;;;;;;;20.72;54.37;95810.06;5144231;27;20171;-77
2021/08/20 09:01:32;;;;;;;6.03;4.60;;;;;;;20.47;55.73;95816.94;5142891;27;20178;-78
2021/08/20 09:04:18;;;;;;;7.47;4.30;;;;;;;20.43;55.32;95811.28;5108747;27;20206;-79
2021/08/20 09:06:45;;;;;;;4.28;3.88;;;;;;;20.81;53.88;95810.66;5118974;27;20210;-77
2021/08/20 09:09:13;;;;;;;4.35;3.95;;;;;;;20.52;55.21;95810.06;5121752;27;20175;-76
2021/08/20 09:11:39;;;;;;;5.30;4.00;;;;;;;20.84;53.80;95807.59;5102951;27;20171;-78
2021/08/20 09:14:05;;;;;;;6.88;4.53;;;;;;;20.61;54.25;95811.47;5103154;27;20183;-75
2021/08/20 09:16:42;;;;;;;4.78;3.65;;;;;;;20.91;54.65;95808.41;5122289;27;20363;-77
2021/08/20 09:19:08;;;;;;;5.53;4.28;;;;;;;21.27;53.54;95809.78;5100904;27;20211;-76
2021/08/20 09:21:34;;;;;;;5.57;4.25;;;;;;;21.22;53.70;95810.38;5117472;27;20182;-77
2021/08/20 09:23:59;;;;;;;4.75;3.90;;;;;;;21.18;53.01;95804.69;5118505;27;20196;-77
2021/08/20 09:26:24;;;;;;;4.55;3.70;;;;;;;20.65;55.31;95809.22;5119293;27;20163;-78
2021/08/20 09:28:50;;;;;;;6.07;4.10;;;;;;;20.86;53.55;95813.50;5100865;27;20171;-77
2021/08/20 09:31:15;;;;;;;5.25;3.97;;;;;;;20.89;53.71;95807.81;5120365;27;20171;-77
2021/08/20 09:33:43;;;;;;;5.65;3.83;;;;;;;20.96;54.85;95810.44;5123392;27;20171;-77
2021/08/20 09:36:11;;;;;;;4.60;3.80;;;;;;;21.35;52.82;95814.84;5122585;27;20206;-77
2021/08/20 09:38:41;;;;;;;5.30;4.38;;;;;;;21.40;53.03;95802.63;5125543;27;20543;-78
2021/08/20 09:41:11;;;;;;;3.90;3.50;;;;;;;21.35;52.85;95810.34;5127242;27;20174;-78
2021/08/20 09:43:39;;;;;;;6.93;3.45;;;;;;;21.52;52.65;95805.44;5109416;27;20218;-77
2021/08/20 09:46:08;;;;;;;4.32;3.92;;;;;;;21.29;51.03;95808.56;5106330;27;20299;-76
2021/08/20 09:48:44;;;;;;;6.20;4.30;;;;;;;21.40;50.59;95801.81;5099911;27;20198;-78
2021/08/20 09:51:11;;;;;;;4.38;3.83;;;;;;;21.74;51.57;95804.13;5136053;27;20174;-77
2021/08/20 09:53:37;;;;;;;4.07;3.42;;;;;;;21.61;51.92;95801.53;5100271;27;20661;-77
2021/08/20 09:56:04;;;;;;;4.82;3.78;;;;;;;21.16;52.37;95798.00;5117133;27;20187;-77
2021/08/20 09:58:33;;;;;;;4.88;3.85;;;;;;;21.04;53.11;95803.09;5118638;27;20727;-75
2021/08/20 10:01:04;;;;;;;5.40;3.75;;;;;;;21.13;52.78;95801.88;5117712;27;20636;-77
2021/08/20 10:03:34;;;;;;;5.93;3.75;;;;;;;21.37;53.50;95799.56;5126800;27;20217;-76
2021/08/20 10:06:00;;;;;;;4.57;3.45;;;;;;;21.73;52.86;95801.66;5135522;27;20171;-77
2021/08/20 10:08:26;;;;;;;4.60;3.25;;;;;;;21.81;52.29;95792.69;5140044;27;20202;-77
2021/08/20 10:10:54;;;;;;;4.22;3.83;;;;;;;21.72;52.46;95806.13;5119883;27;20184;-76
2021/08/20 10:13:19;;;;;;;4.78;4.03;;;;;;;21.53;52.36;95793.03;5118629;27;20170;-77
2021/08/20 10:15:45;;;;;;;4.82;3.70;;;;;;;21.58;51.53;95798.50;5099655;27;20179;-77
2021/08/20 10:18:13;;;;;;;5.32;3.35;;;;;;;21.75;49.91;95795.16;5104624;27;20194;-78
2021/08/20 10:20:39;;;;;;;4.97;4.07;;;;;;;21.50;50.49;95791.63;5116299;27;20186;-78
2021/08/20 10:23:04;;;;;;;4.85;3.47;;;;;;;21.64;50.26;95793.16;5116115;27;20199;-78
2021/08/20 10:25:31;;;;;;;4.75;3.65;;;;;;;21.81;50.07;95792.69;5115798;27;20186;-77
2021/08/20 10:27:58;;;;;;;3.55;3.22;;;;;;;21.53;48.89;95793.84;5133462;27;20183;-78
2021/08/20 10:30:23;;;;;;;3.30;3.05;;;;;;;21.13;51.16;95791.31;5115456;27;20581;-78
2021/08/20 10:33:03;;;;;;;4.75;3.65;;;;;;;21.32;52.34;95796.78;5114892;27;20278;-78
2021/08/20 10:35:48;;;;;;;4.57;3.50;;;;;;;21.06;51.63;95790.50;5133848;27;20173;-77
2021/08/20 10:38:27;;;;;;;5.15;3.88;;;;;;;21.03;52.97;95785.66;5115324;27;20198;-79
2021/08/20 10:41:06;;;;;;;3.50;3.20;;;;;;;21.13;52.80;95785.22;5115091;27;20242;-78
2021/08/20 10:43:55;;;;;;;4.05;3.60;;;;;;;20.99;52.97;95792.34;5132970;27;20210;-76
2021/08/20 10:46:36;;;;;;;5.13;3.42;;;;;;;20.94;51.41;95792.16;5114805;27;20259;-76
2021/08/20 10:49:11;;;;;;;4.07;3.22;;;;;;;20.77;51.78;95789.16;5114503;27;20187;-77
2021/08/20 10:51:48;;;;;;;6.60;3.10;;;;;;;21.20;49.30;95789.47;5132407;27;20185;-77
2021/08/20 10:54:17;;;;;;;3.50;2.75;;;;;;;21.31;49.62;95787.22;5113856;27;20665;-76
2021/08/20 10:56:42;;;;;;;2.90;2.70;;;;;;;21.81;49.31;95795.31;5131959;27;20222;-77
2021/08/20 10:59:08;;;;;;;3.53;3.20;;;;;;;21.85;48.76;95780.69;5114694;27;20171;-75
2021/08/20 11:01:33;;;;;;;3.42;3.13;;;;;;;22.02;48.17;95792.38;5112420;28;20171;-75
2021/08/20 11:03:59;;;;;;;3.05;2.75;;;;;;;22.06;48.97;95780.34;5113092;27;20706;-75
2021/08/20 11:06:53;;;;;;;3.85;3.47;;;;;;;21.78;49.58;95789.44;5131899;27;20175;-75
2021/08/20 11:09:29;;;;;;;3.17;2.88;;;;;;;21.94;49.20;95789.97;5131356;27;20242;-75
2021/08/20 11:11:54;;;;;;;4.97;3.13;;;;;;;21.93;49.02;95785.72;5112928;27;20175;-75
2021/08/20 11:14:27;;;;;;;4.25;3.25;;;;;;;22.31;50.86;95798.91;5131566;27;20178;-74
2021/08/20 11:16:53;;;;;;;2.95;2.65;;;;;;;22.36;48.77;95791.16;5113384;27;20199;-76
2021/08/20 11:19:50;;;;;;;3.88;3.20;;;;;;;22.49;48.57;95792.88;5113131;27;20170;-76
2021/08/20 11:22:20;;;;;;;4.30;3.15;;;;;;;22.17;47.86;95790.25;5112939;27;20194;-76
2021/08/20 11:25:12;;;;;;;4.05;3.38;;;;;;;21.70;49.99;95788.88;5112791;27;20207;-75
2021/08/20 11:27:38;;;;;;;4.53;3.42;;;;;;;21.48;51.36;95796.31;5113330;27;20264;-76
2021/08/20 11:30:04;;;;;;;5.18;3.22;;;;;;;21.92;50.81;95792.84;5113154;27;20171;-74
2021/08/20 11:32:30;;;;;;;4.25;3.08;;;;;;;21.88;49.60;95793.47;5112863;27;20167;-77